sensor_id;sensor_type;location;lat;lon;timestamp;temperature;humidity
10388;DHT22;5240;51.128;4.566;2023-11-19T00:00:51;13.70;99.90
10388;DHT22;5240;51.128;4.566;2023-11-19T00:03:19;13.70;99.90
10388;DHT22;5240;51.128;4.566;2023-11-19T00:05:47;13.80;99.90
10388;DHT22;5240;51.128;4.566;2023-11-19T00:08:14;13.70;99.90
10388;DHT22;5240;51.128;4.566;2023-11-19T00:10:41;13.70;99.90
10388;DHT22;5240;51.128;4.566;2023-11-19T00:13:08;13.70;99.90
10388;DHT22;5240;51.128;4.566;2023-11-19T00:15:35;13.70;99.90
10388;DHT22;5240;51.128;4.566;2023-11-19T00:18:03;13.70;99.90
10388;DHT22;5240;51.128;4.566;2023-11-19T00:20:31;13.70;99.90
10388;DHT22;5240;51.128;4.566;2023-11-19T00:22:58;13.70;99.90
10388;DHT22;5240;51.128;4.566;2023-11-19T00:25:27;13.70;99.90
10388;DHT22;5240;51.128;4.566;2023-11-19T00:27:54;13.70;99.90
10388;DHT22;5240;51.128;4.566;2023-11-19T00:30:22;13.60;99.90
10388;DHT22;5240;51.128;4.566;2023-11-19T00:32:49;13.60;99.90
10388;DHT22;5240;51.128;4.566;2023-11-19T00:35:16;13.70;99.90
10388;DHT22;5240;51.128;4.566;2023-11-19T00:37:44;13.70;99.90
10388;DHT22;5240;51.128;4.566;2023-11-19T00:52:35;13.70;99.90
10388;DHT22;5240;51.128;4.566;2023-11-19T01:09:52;13.70;99.90
10388;DHT22;5240;51.128;4.566;2023-11-19T08:29:12;13.60;99.90
10388;DHT22;5240;51.128;4.566;2023-11-19T08:31:42;12.40;99.90
10388;DHT22;5240;51.128;4.566;2023-11-19T08:34:09;12.40;99.90
10388;DHT22;5240;51.128;4.566;2023-11-19T08:36:36;12.60;99.90
10388;DHT22;5240;51.128;4.566;2023-11-19T08:39:03;12.50;99.90
10388;DHT22;5240;51.128;4.566;2023-11-19T08:41:30;12.50;99.90
10388;DHT22;5240;51.128;4.566;2023-11-19T08:43:57;12.50;99.90
10388;DHT22;5240;51.128;4.566;2023-11-19T08:46:25;12.50;99.90
10388;DHT22;5240;51.128;4.566;2023-11-19T08:48:53;12.50;99.90
10388;DHT22;5240;51.128;4.566;2023-11-19T08:51:23;12.60;99.90
10388;DHT22;5240;51.128;4.566;2023-11-19T08:53:51;12.70;99.90
10388;DHT22;5240;51.128;4.566;2023-11-19T08:56:17;12.80;99.90
10388;DHT22;5240;51.128;4.566;2023-11-19T08:58:44;12.90;99.90
10388;DHT22;5240;51.128;4.566;2023-11-19T09:01:11;12.90;99.90
10388;DHT22;5240;51.128;4.566;2023-11-19T09:03:39;13.00;99.90
10388;DHT22;5240;51.128;4.566;2023-11-19T09:06:08;13.30;99.90
10388;DHT22;5240;51.128;4.566;2023-11-19T09:08:35;13.50;99.90
10388;DHT22;5240;51.128;4.566;2023-11-19T09:11:06;13.70;99.90
10388;DHT22;5240;51.128;4.566;2023-11-19T09:13:34;14.00;99.90
10388;DHT22;5240;51.128;4.566;2023-11-19T09:16:01;14.10;99.90
10388;DHT22;5240;51.128;4.566;2023-11-19T09:18:29;14.10;99.90
10388;DHT22;5240;51.128;4.566;2023-11-19T09:20:56;14.30;99.90
10388;DHT22;5240;51.128;4.566;2023-11-19T09:23:24;14.30;99.90
10388;DHT22;5240;51.128;4.566;2023-11-19T09:25:53;14.50;99.90
10388;DHT22;5240;51.128;4.566;2023-11-19T09:28:20;14.60;99.90
10388;DHT22;5240;51.128;4.566;2023-11-19T09:30:47;14.70;99.90
10388;DHT22;5240;51.128;4.566;2023-11-19T09:33:14;14.80;99.90
10388;DHT22;5240;51.128;4.566;2023-11-19T09:35:41;14.80;99.90
10388;DHT22;5240;51.128;4.566;2023-11-19T09:38:08;14.50;99.90
10388;DHT22;5240;51.128;4.566;2023-11-19T09:40:36;14.20;99.90
10388;DHT22;5240;51.128;4.566;2023-11-19T09:43:04;14.00;99.90
10388;DHT22;5240;51.128;4.566;2023-11-19T09:45:32;13.80;99.90
10388;DHT22;5240;51.128;4.566;2023-11-19T09:48:04;13.60;99.90
10388;DHT22;5240;51.128;4.566;2023-11-19T09:50:31;13.50;99.90
10388;DHT22;5240;51.128;4.566;2023-11-19T09:52:58;13.40;99.90
10388;DHT22;5240;51.128;4.566;2023-11-19T09:55:25;13.30;99.90
10388;DHT22;5240;51.128;4.566;2023-11-19T09:57:54;13.30;99.90
10388;DHT22;5240;51.128;4.566;2023-11-19T10:00:22;13.40;99.90
10388;DHT22;5240;51.128;4.566;2023-11-19T10:02:50;13.40;99.90
10388;DHT22;5240;51.128;4.566;2023-11-19T10:05:17;13.40;99.90
10388;DHT22;5240;51.128;4.566;2023-11-19T10:07:46;13.40;99.90
10388;DHT22;5240;51.128;4.566;2023-11-19T10:10:15;13.40;99.90
10388;DHT22;5240;51.128;4.566;2023-11-19T10:12:45;13.50;99.90
10388;DHT22;5240;51.128;4.566;2023-11-19T10:15:20;13.50;99.90
10388;DHT22;5240;51.128;4.566;2023-11-19T10:17:47;13.40;99.90
10388;DHT22;5240;51.128;4.566;2023-11-19T10:20:15;13.50;99.90
10388;DHT22;5240;51.128;4.566;2023-11-19T10:22:42;13.50;99.90
10388;DHT22;5240;51.128;4.566;2023-11-19T10:25:21;13.50;99.90
10388;DHT22;5240;51.128;4.566;2023-11-19T10:27:49;13.50;99.90
10388;DHT22;5240;51.128;4.566;2023-11-19T10:30:20;13.50;99.90
10388;DHT22;5240;51.128;4.566;2023-11-19T10:33:05;13.60;99.90
10388;DHT22;5240;51.128;4.566;2023-11-19T10:35:33;13.80;99.90
10388;DHT22;5240;51.128;4.566;2023-11-19T10:38:01;13.80;99.90
10388;DHT22;5240;51.128;4.566;2023-11-19T10:40:38;13.80;99.90
10388;DHT22;5240;51.128;4.566;2023-11-19T10:43:06;13.70;99.90
10388;DHT22;5240;51.128;4.566;2023-11-19T10:45:36;13.80;99.90
10388;DHT22;5240;51.128;4.566;2023-11-19T10:48:04;13.80;99.90
10388;DHT22;5240;51.128;4.566;2023-11-19T10:50:36;13.80;99.90
10388;DHT22;5240;51.128;4.566;2023-11-19T10:53:04;13.70;99.90
10388;DHT22;5240;51.128;4.566;2023-11-19T10:55:33;13.60;99.90
10388;DHT22;5240;51.128;4.566;2023-11-19T10:58:02;13.50;99.90
10388;DHT22;5240;51.128;4.566;2023-11-19T11:00:38;13.30;99.90
10388;DHT22;5240;51.128;4.566;2023-11-19T11:03:11;13.20;99.90
10388;DHT22;5240;51.128;4.566;2023-11-19T11:05:38;13.20;99.90
10388;DHT22;5240;51.128;4.566;2023-11-19T11:08:06;13.10;99.90
10388;DHT22;5240;51.128;4.566;2023-11-19T11:10:39;13.00;99.90
10388;DHT22;5240;51.128;4.566;2023-11-19T11:13:06;13.10;99.90
10388;DHT22;5240;51.128;4.566;2023-11-19T11:15:34;13.20;99.90
10388;DHT22;5240;51.128;4.566;2023-11-19T11:18:03;13.40;99.90
10388;DHT22;5240;51.128;4.566;2023-11-19T11:20:30;13.60;99.90
10388;DHT22;5240;51.128;4.566;2023-11-19T11:26:12;13.80;99.90
10388;DHT22;5240;51.128;4.566;2023-11-19T11:28:48;13.80;99.90
10388;DHT22;5240;51.128;4.566;2023-11-19T11:31:26;13.70;99.90
10388;DHT22;5240;51.128;4.566;2023-11-19T11:34:23;13.60;99.90
10388;DHT22;5240;51.128;4.566;2023-11-19T11:37:01;13.60;99.90
10388;DHT22;5240;51.128;4.566;2023-11-19T11:39:30;13.70;99.90
10388;DHT22;5240;51.128;4.566;2023-11-19T11:42:33;13.70;99.90
10388;DHT22;5240;51.128;4.566;2023-11-19T11:45:02;13.90;99.90
10388;DHT22;5240;51.128;4.566;2023-11-19T11:50:34;13.90;99.90
10388;DHT22;5240;51.128;4.566;2023-11-19T11:53:16;13.90;99.90
10388;DHT22;5240;51.128;4.566;2023-11-19T11:55:57;13.90;99.90
10388;DHT22;5240;51.128;4.566;2023-11-19T11:58:35;14.00;99.90
10388;DHT22;5240;51.128;4.566;2023-11-19T12:01:04;14.00;99.90
10388;DHT22;5240;51.128;4.566;2023-11-19T12:03:32;14.10;99.90
10388;DHT22;5240;51.128;4.566;2023-11-19T12:06:02;14.30;99.90
10388;DHT22;5240;51.128;4.566;2023-11-19T12:08:34;14.40;99.90
10388;DHT22;5240;51.128;4.566;2023-11-19T12:11:02;14.30;99.90
10388;DHT22;5240;51.128;4.566;2023-11-19T12:13:53;14.30;99.90
10388;DHT22;5240;51.128;4.566;2023-11-19T12:16:24;14.00;99.90
10388;DHT22;5240;51.128;4.566;2023-11-19T21:27:32;12.20;99.90
10388;DHT22;5240;51.128;4.566;2023-11-19T21:30:00;12.20;99.90
10388;DHT22;5240;51.128;4.566;2023-11-19T21:32:30;12.20;99.90
10388;DHT22;5240;51.128;4.566;2023-11-19T21:34:57;12.20;99.90
10388;DHT22;5240;51.128;4.566;2023-11-19T21:37:26;12.20;99.90
10388;DHT22;5240;51.128;4.566;2023-11-19T21:39:53;12.20;99.90
10388;DHT22;5240;51.128;4.566;2023-11-19T21:42:20;12.20;99.90
10388;DHT22;5240;51.128;4.566;2023-11-19T21:44:47;12.20;99.90
10388;DHT22;5240;51.128;4.566;2023-11-19T21:47:15;12.20;99.90
10388;DHT22;5240;51.128;4.566;2023-11-19T21:49:42;12.20;99.90
10388;DHT22;5240;51.128;4.566;2023-11-19T21:52:10;12.20;99.90
10388;DHT22;5240;51.128;4.566;2023-11-19T21:54:37;12.20;99.90
10388;DHT22;5240;51.128;4.566;2023-11-19T21:57:04;12.20;99.90
10388;DHT22;5240;51.128;4.566;2023-11-19T21:59:32;12.20;99.90
10388;DHT22;5240;51.128;4.566;2023-11-19T22:01:59;12.20;99.90
10388;DHT22;5240;51.128;4.566;2023-11-19T22:04:28;12.20;99.90
10388;DHT22;5240;51.128;4.566;2023-11-19T22:06:55;12.20;99.90
10388;DHT22;5240;51.128;4.566;2023-11-19T22:09:23;12.20;99.90
10388;DHT22;5240;51.128;4.566;2023-11-19T22:11:49;12.20;99.90
10388;DHT22;5240;51.128;4.566;2023-11-19T22:14:17;12.20;99.90
10388;DHT22;5240;51.128;4.566;2023-11-19T22:16:43;12.30;99.90
10388;DHT22;5240;51.128;4.566;2023-11-19T22:19:11;12.20;99.90
10388;DHT22;5240;51.128;4.566;2023-11-19T22:21:39;12.20;99.90
10388;DHT22;5240;51.128;4.566;2023-11-19T22:24:07;12.10;99.90
10388;DHT22;5240;51.128;4.566;2023-11-19T22:26:34;12.10;99.90
10388;DHT22;5240;51.128;4.566;2023-11-19T22:29:03;12.10;99.90
10388;DHT22;5240;51.128;4.566;2023-11-19T22:33:59;12.00;99.90
